sensor_id;sensor_type;location;lat;lon;timestamp;P1;durP1;ratioP1;P2;durP2;ratioP2
64667;SDS011;51077;42.716;23.344;2022-08-19T00:02:02;6.40;;;3.27;;
64667;SDS011;51077;42.716;23.344;2022-08-19T00:04:30;7.20;;;3.58;;
64667;SDS011;51077;42.716;23.344;2022-08-19T00:06:58;6.45;;;3.70;;
64667;SDS011;51077;42.716;23.344;2022-08-19T00:09:24;7.63;;;3.72;;
64667;SDS011;51077;42.716;23.344;2022-08-19T00:11:50;5.43;;;3.60;;
64667;SDS011;51077;42.716;23.344;2022-08-19T00:14:17;6.13;;;3.42;;
64667;SDS011;51077;42.716;23.344;2022-08-19T00:16:46;4.15;;;3.17;;
64667;SDS011;51077;42.716;23.344;2022-08-19T00:19:12;5.47;;;3.58;;
64667;SDS011;51077;42.716;23.344;2022-08-19T00:21:38;5.75;;;3.22;;
64667;SDS011;51077;42.716;23.344;2022-08-19T00:24:08;5.30;;;3.20;;
64667;SDS011;51077;42.716;23.344;2022-08-19T00:26:36;4.90;;;3.13;;
64667;SDS011;51077;42.716;23.344;2022-08-19T00:29:03;4.65;;;3.30;;
64667;SDS011;51077;42.716;23.344;2022-08-19T00:31:29;4.88;;;3.22;;
64667;SDS011;51077;42.716;23.344;2022-08-19T00:33:56;4.47;;;3.28;;
64667;SDS011;51077;42.716;23.344;2022-08-19T00:36:22;4.57;;;3.17;;
64667;SDS011;51077;42.716;23.344;2022-08-19T00:38:47;4.93;;;3.50;;
64667;SDS011;51077;42.716;23.344;2022-08-19T00:41:14;7.20;;;3.13;;
64667;SDS011;51077;42.716;23.344;2022-08-19T00:43:42;9.82;;;3.72;;
64667;SDS011;51077;42.716;23.344;2022-08-19T00:46:08;6.13;;;3.20;;
64667;SDS011;51077;42.716;23.344;2022-08-19T00:48:34;4.90;;;3.50;;
64667;SDS011;51077;42.716;23.344;2022-08-19T00:51:01;4.78;;;3.25;;
64667;SDS011;51077;42.716;23.344;2022-08-19T00:53:27;5.57;;;3.53;;
64667;SDS011;51077;42.716;23.344;2022-08-19T00:55:56;4.47;;;3.55;;
64667;SDS011;51077;42.716;23.344;2022-08-19T00:58:25;6.13;;;3.33;;
64667;SDS011;51077;42.716;23.344;2022-08-19T01:00:54;5.45;;;3.38;;
64667;SDS011;51077;42.716;23.344;2022-08-19T01:03:20;4.70;;;3.10;;
64667;SDS011;51077;42.716;23.344;2022-08-19T01:05:47;6.78;;;3.80;;
64667;SDS011;51077;42.716;23.344;2022-08-19T01:08:14;5.05;;;3.40;;
64667;SDS011;51077;42.716;23.344;2022-08-19T01:10:48;7.07;;;3.80;;
64667;SDS011;51077;42.716;23.344;2022-08-19T01:13:17;6.72;;;3.63;;
64667;SDS011;51077;42.716;23.344;2022-08-19T01:15:48;8.13;;;3.60;;
64667;SDS011;51077;42.716;23.344;2022-08-19T01:18:18;6.47;;;3.40;;
64667;SDS011;51077;42.716;23.344;2022-08-19T01:20:45;6.25;;;3.83;;
64667;SDS011;51077;42.716;23.344;2022-08-19T01:23:12;5.57;;;3.78;;
64667;SDS011;51077;42.716;23.344;2022-08-19T01:25:41;5.75;;;3.67;;
64667;SDS011;51077;42.716;23.344;2022-08-19T01:28:14;4.57;;;3.53;;
64667;SDS011;51077;42.716;23.344;2022-08-19T01:30:48;6.20;;;3.78;;
64667;SDS011;51077;42.716;23.344;2022-08-19T01:33:14;8.23;;;4.38;;
64667;SDS011;51077;42.716;23.344;2022-08-19T01:35:40;4.72;;;3.70;;
64667;SDS011;51077;42.716;23.344;2022-08-19T01:38:09;7.18;;;4.00;;
64667;SDS011;51077;42.716;23.344;2022-08-19T01:40:43;7.88;;;4.18;;
64667;SDS011;51077;42.716;23.344;2022-08-19T01:43:09;6.70;;;4.50;;
64667;SDS011;51077;42.716;23.344;2022-08-19T01:45:35;6.70;;;4.17;;
64667;SDS011;51077;42.716;23.344;2022-08-19T01:48:00;7.22;;;4.07;;
64667;SDS011;51077;42.716;23.344;2022-08-19T01:50:25;8.40;;;4.27;;
64667;SDS011;51077;42.716;23.344;2022-08-19T01:52:51;5.57;;;4.37;;
64667;SDS011;51077;42.716;23.344;2022-08-19T01:55:18;4.50;;;3.75;;
64667;SDS011;51077;42.716;23.344;2022-08-19T01:57:48;7.68;;;4.30;;
64667;SDS011;51077;42.716;23.344;2022-08-19T02:00:17;5.68;;;4.05;;
64667;SDS011;51077;42.716;23.344;2022-08-19T02:02:45;7.65;;;4.13;;
64667;SDS011;51077;42.716;23.344;2022-08-19T02:05:11;6.03;;;4.20;;
64667;SDS011;51077;42.716;23.344;2022-08-19T02:07:38;7.20;;;3.93;;
64667;SDS011;51077;42.716;23.344;2022-08-19T02:10:07;6.03;;;4.10;;
64667;SDS011;51077;42.716;23.344;2022-08-19T02:12:36;6.28;;;3.97;;
64667;SDS011;51077;42.716;23.344;2022-08-19T02:15:02;5.73;;;4.20;;
64667;SDS011;51077;42.716;23.344;2022-08-19T02:17:28;7.30;;;4.10;;
64667;SDS011;51077;42.716;23.344;2022-08-19T02:19:55;7.00;;;4.47;;
64667;SDS011;51077;42.716;23.344;2022-08-19T02:22:21;5.00;;;4.00;;
64667;SDS011;51077;42.716;23.344;2022-08-19T02:24:48;5.20;;;3.88;;
64667;SDS011;51077;42.716;23.344;2022-08-19T02:27:13;6.10;;;4.10;;
64667;SDS011;51077;42.716;23.344;2022-08-19T02:29:39;7.20;;;4.30;;
64667;SDS011;51077;42.716;23.344;2022-08-19T02:32:06;5.00;;;4.20;;
64667;SDS011;51077;42.716;23.344;2022-08-19T02:34:32;6.20;;;4.38;;
64667;SDS011;51077;42.716;23.344;2022-08-19T02:36:59;7.45;;;4.60;;
64667;SDS011;51077;42.716;23.344;2022-08-19T02:39:25;5.37;;;4.37;;
64667;SDS011;51077;42.716;23.344;2022-08-19T02:41:51;5.28;;;4.22;;
64667;SDS011;51077;42.716;23.344;2022-08-19T02:44:17;7.07;;;4.50;;
64667;SDS011;51077;42.716;23.344;2022-08-19T02:46:42;7.53;;;4.50;;
64667;SDS011;51077;42.716;23.344;2022-08-19T02:49:12;7.20;;;4.32;;
64667;SDS011;51077;42.716;23.344;2022-08-19T02:51:41;6.45;;;4.40;;
64667;SDS011;51077;42.716;23.344;2022-08-19T02:54:08;7.30;;;4.72;;
64667;SDS011;51077;42.716;23.344;2022-08-19T02:56:36;7.05;;;4.72;;
64667;SDS011;51077;42.716;23.344;2022-08-19T02:59:03;6.88;;;4.90;;
64667;SDS011;51077;42.716;23.344;2022-08-19T03:01:33;5.82;;;4.38;;
64667;SDS011;51077;42.716;23.344;2022-08-19T03:04:00;8.10;;;4.60;;
64667;SDS011;51077;42.716;23.344;2022-08-19T03:06:27;5.35;;;4.38;;
64667;SDS011;51077;42.716;23.344;2022-08-19T03:08:54;5.80;;;4.45;;
64667;SDS011;51077;42.716;23.344;2022-08-19T03:11:27;5.50;;;4.90;;
64667;SDS011;51077;42.716;23.344;2022-08-19T03:13:55;6.53;;;4.68;;
64667;SDS011;51077;42.716;23.344;2022-08-19T03:16:23;6.88;;;4.53;;
64667;SDS011;51077;42.716;23.344;2022-08-19T03:18:51;6.95;;;4.80;;
64667;SDS011;51077;42.716;23.344;2022-08-19T03:21:22;7.68;;;5.13;;
64667;SDS011;51077;42.716;23.344;2022-08-19T03:23:50;6.63;;;4.60;;
64667;SDS011;51077;42.716;23.344;2022-08-19T03:26:19;5.35;;;4.70;;
64667;SDS011;51077;42.716;23.344;2022-08-19T03:28:44;6.53;;;5.00;;
64667;SDS011;51077;42.716;23.344;2022-08-19T03:31:15;6.68;;;4.75;;
64667;SDS011;51077;42.716;23.344;2022-08-19T03:33:42;6.25;;;5.13;;
64667;SDS011;51077;42.716;23.344;2022-08-19T03:36:10;8.03;;;5.27;;
64667;SDS011;51077;42.716;23.344;2022-08-19T03:38:38;6.57;;;5.05;;
64667;SDS011;51077;42.716;23.344;2022-08-19T03:41:12;8.45;;;5.18;;
64667;SDS011;51077;42.716;23.344;2022-08-19T03:43:40;7.07;;;5.33;;
64667;SDS011;51077;42.716;23.344;2022-08-19T03:46:07;6.57;;;5.13;;
64667;SDS011;51077;42.716;23.344;2022-08-19T03:48:38;11.57;;;4.72;;
64667;SDS011;51077;42.716;23.344;2022-08-19T03:51:05;7.40;;;4.90;;
64667;SDS011;51077;42.716;23.344;2022-08-19T03:53:32;7.70;;;5.55;;
64667;SDS011;51077;42.716;23.344;2022-08-19T03:55:59;7.80;;;4.90;;
64667;SDS011;51077;42.716;23.344;2022-08-19T03:58:26;6.07;;;4.88;;
64667;SDS011;51077;42.716;23.344;2022-08-19T04:00:54;5.75;;;4.90;;
64667;SDS011;51077;42.716;23.344;2022-08-19T04:03:23;7.32;;;5.50;;
64667;SDS011;51077;42.716;23.344;2022-08-19T04:05:49;7.93;;;5.40;;
64667;SDS011;51077;42.716;23.344;2022-08-19T04:08:15;9.02;;;5.65;;
64667;SDS011;51077;42.716;23.344;2022-08-19T04:10:43;6.20;;;5.20;;
64667;SDS011;51077;42.716;23.344;2022-08-19T04:13:09;9.57;;;5.53;;
64667;SDS011;51077;42.716;23.344;2022-08-19T04:15:38;9.00;;;5.40;;
64667;SDS011;51077;42.716;23.344;2022-08-19T04:18:07;8.40;;;5.80;;
64667;SDS011;51077;42.716;23.344;2022-08-19T04:20:40;12.50;;;5.55;;
64667;SDS011;51077;42.716;23.344;2022-08-19T04:23:10;10.20;;;5.85;;
64667;SDS011;51077;42.716;23.344;2022-08-19T04:25:42;8.55;;;5.30;;
64667;SDS011;51077;42.716;23.344;2022-08-19T04:28:10;7.45;;;5.70;;
64667;SDS011;51077;42.716;23.344;2022-08-19T04:30:40;8.25;;;5.97;;
64667;SDS011;51077;42.716;23.344;2022-08-19T04:33:09;9.25;;;5.40;;
64667;SDS011;51077;42.716;23.344;2022-08-19T04:35:40;11.00;;;5.45;;
64667;SDS011;51077;42.716;23.344;2022-08-19T04:38:08;7.82;;;5.57;;
64667;SDS011;51077;42.716;23.344;2022-08-19T04:40:39;15.63;;;6.00;;
64667;SDS011;51077;42.716;23.344;2022-08-19T04:43:27;9.85;;;5.47;;
64667;SDS011;51077;42.716;23.344;2022-08-19T04:45:53;10.80;;;5.90;;
64667;SDS011;51077;42.716;23.344;2022-08-19T04:48:19;11.32;;;6.45;;
64667;SDS011;51077;42.716;23.344;2022-08-19T04:50:50;12.18;;;5.75;;
64667;SDS011;51077;42.716;23.344;2022-08-19T04:53:29;8.85;;;6.05;;
64667;SDS011;51077;42.716;23.344;2022-08-19T04:55:56;10.00;;;6.15;;
64667;SDS011;51077;42.716;23.344;2022-08-19T04:58:24;14.23;;;6.03;;
64667;SDS011;51077;42.716;23.344;2022-08-19T05:00:51;11.40;;;6.15;;
64667;SDS011;51077;42.716;23.344;2022-08-19T05:03:17;11.43;;;5.80;;
64667;SDS011;51077;42.716;23.344;2022-08-19T05:05:44;8.80;;;5.40;;
64667;SDS011;51077;42.716;23.344;2022-08-19T05:08:12;8.55;;;5.50;;
64667;SDS011;51077;42.716;23.344;2022-08-19T05:10:43;11.25;;;5.47;;
64667;SDS011;51077;42.716;23.344;2022-08-19T05:13:09;12.85;;;6.10;;
64667;SDS011;51077;42.716;23.344;2022-08-19T05:15:35;7.53;;;5.10;;
64667;SDS011;51077;42.716;23.344;2022-08-19T05:18:01;9.47;;;5.60;;
64667;SDS011;51077;42.716;23.344;2022-08-19T05:20:45;9.27;;;5.63;;
64667;SDS011;51077;42.716;23.344;2022-08-19T05:23:29;9.10;;;5.25;;
64667;SDS011;51077;42.716;23.344;2022-08-19T05:25:55;9.75;;;5.75;;
64667;SDS011;51077;42.716;23.344;2022-08-19T05:28:20;8.53;;;5.67;;
64667;SDS011;51077;42.716;23.344;2022-08-19T05:30:46;11.50;;;5.63;;
64667;SDS011;51077;42.716;23.344;2022-08-19T05:33:13;12.90;;;6.00;;
64667;SDS011;51077;42.716;23.344;2022-08-19T05:35:39;10.80;;;5.57;;
64667;SDS011;51077;42.716;23.344;2022-08-19T05:38:06;8.73;;;5.07;;
64667;SDS011;51077;42.716;23.344;2022-08-19T05:40:36;8.93;;;5.45;;
64667;SDS011;51077;42.716;23.344;2022-08-19T05:43:06;9.48;;;5.55;;
64667;SDS011;51077;42.716;23.344;2022-08-19T05:45:33;7.25;;;5.65;;
64667;SDS011;51077;42.716;23.344;2022-08-19T05:48:03;10.30;;;6.40;;
64667;SDS011;51077;42.716;23.344;2022-08-19T05:50:29;8.40;;;6.30;;
64667;SDS011;51077;42.716;23.344;2022-08-19T05:52:55;10.30;;;5.80;;
64667;SDS011;51077;42.716;23.344;2022-08-19T05:55:20;9.37;;;5.40;;
64667;SDS011;51077;42.716;23.344;2022-08-19T05:57:47;7.07;;;4.85;;
64667;SDS011;51077;42.716;23.344;2022-08-19T06:00:12;9.37;;;5.67;;
64667;SDS011;51077;42.716;23.344;2022-08-19T06:02:39;8.30;;;5.60;;
64667;SDS011;51077;42.716;23.344;2022-08-19T06:05:05;9.93;;;5.40;;
64667;SDS011;51077;42.716;23.344;2022-08-19T06:07:34;8.40;;;6.13;;
64667;SDS011;51077;42.716;23.344;2022-08-19T06:10:00;10.57;;;5.72;;
64667;SDS011;51077;42.716;23.344;2022-08-19T06:12:27;10.70;;;5.88;;
64667;SDS011;51077;42.716;23.344;2022-08-19T06:14:56;9.60;;;5.63;;
64667;SDS011;51077;42.716;23.344;2022-08-19T06:17:22;10.03;;;5.90;;
64667;SDS011;51077;42.716;23.344;2022-08-19T06:19:50;9.52;;;5.60;;
64667;SDS011;51077;42.716;23.344;2022-08-19T06:22:16;7.53;;;5.50;;
64667;SDS011;51077;42.716;23.344;2022-08-19T06:24:42;8.37;;;5.47;;
64667;SDS011;51077;42.716;23.344;2022-08-19T06:27:07;9.13;;;5.43;;
64667;SDS011;51077;42.716;23.344;2022-08-19T06:29:33;9.93;;;6.07;;
64667;SDS011;51077;42.716;23.344;2022-08-19T06:32:00;9.80;;;5.47;;
64667;SDS011;51077;42.716;23.344;2022-08-19T06:34:28;9.68;;;5.05;;
64667;SDS011;51077;42.716;23.344;2022-08-19T06:36:55;8.38;;;5.88;;
64667;SDS011;51077;42.716;23.344;2022-08-19T06:39:23;7.25;;;4.75;;
64667;SDS011;51077;42.716;23.344;2022-08-19T06:41:51;7.32;;;5.10;;
64667;SDS011;51077;42.716;23.344;2022-08-19T06:44:20;8.40;;;4.97;;
64667;SDS011;51077;42.716;23.344;2022-08-19T06:46:48;12.45;;;5.07;;
64667;SDS011;51077;42.716;23.344;2022-08-19T06:49:16;6.90;;;4.97;;
64667;SDS011;51077;42.716;23.344;2022-08-19T06:51:43;10.55;;;5.18;;
64667;SDS011;51077;42.716;23.344;2022-08-19T06:54:12;8.45;;;4.63;;
64667;SDS011;51077;42.716;23.344;2022-08-19T06:56:38;10.10;;;4.85;;
64667;SDS011;51077;42.716;23.344;2022-08-19T06:59:08;7.47;;;4.33;;
64667;SDS011;51077;42.716;23.344;2022-08-19T07:01:36;10.40;;;5.38;;
64667;SDS011;51077;42.716;23.344;2022-08-19T07:04:05;8.95;;;4.72;;
64667;SDS011;51077;42.716;23.344;2022-08-19T07:06:32;9.55;;;5.22;;
64667;SDS011;51077;42.716;23.344;2022-08-19T07:08:57;9.67;;;5.00;;
64667;SDS011;51077;42.716;23.344;2022-08-19T07:11:23;7.67;;;4.70;;
64667;SDS011;51077;42.716;23.344;2022-08-19T07:13:49;8.77;;;4.80;;
64667;SDS011;51077;42.716;23.344;2022-08-19T07:16:16;10.90;;;4.60;;
64667;SDS011;51077;42.716;23.344;2022-08-19T07:18:47;12.75;;;4.25;;
64667;SDS011;51077;42.716;23.344;2022-08-19T07:21:15;8.93;;;4.75;;
64667;SDS011;51077;42.716;23.344;2022-08-19T07:23:46;10.88;;;5.25;;
64667;SDS011;51077;42.716;23.344;2022-08-19T07:26:17;8.82;;;4.88;;
64667;SDS011;51077;42.716;23.344;2022-08-19T07:28:44;10.00;;;4.72;;
64667;SDS011;51077;42.716;23.344;2022-08-19T07:31:16;14.25;;;4.95;;
64667;SDS011;51077;42.716;23.344;2022-08-19T07:33:44;10.75;;;4.35;;
64667;SDS011;51077;42.716;23.344;2022-08-19T07:36:11;5.57;;;4.03;;
64667;SDS011;51077;42.716;23.344;2022-08-19T07:38:39;7.18;;;4.38;;
64667;SDS011;51077;42.716;23.344;2022-08-19T07:41:07;8.73;;;4.20;;
64667;SDS011;51077;42.716;23.344;2022-08-19T07:43:35;9.30;;;4.47;;
64667;SDS011;51077;42.716;23.344;2022-08-19T07:46:00;11.10;;;4.87;;
64667;SDS011;51077;42.716;23.344;2022-08-19T07:48:26;9.43;;;4.30;;
64667;SDS011;51077;42.716;23.344;2022-08-19T07:50:56;10.70;;;5.10;;
64667;SDS011;51077;42.716;23.344;2022-08-19T07:53:27;8.05;;;4.03;;
64667;SDS011;51077;42.716;23.344;2022-08-19T07:55:53;6.07;;;4.00;;
64667;SDS011;51077;42.716;23.344;2022-08-19T07:58:20;9.60;;;4.20;;
64667;SDS011;51077;42.716;23.344;2022-08-19T08:00:48;10.27;;;4.10;;
64667;SDS011;51077;42.716;23.344;2022-08-19T08:03:16;10.43;;;4.33;;
64667;SDS011;51077;42.716;23.344;2022-08-19T08:05:44;8.50;;;4.60;;
64667;SDS011;51077;42.716;23.344;2022-08-19T08:11:13;10.05;;;4.38;;
64667;SDS011;51077;42.716;23.344;2022-08-19T08:13:39;8.37;;;3.87;;
64667;SDS011;51077;42.716;23.344;2022-08-19T08:16:06;6.77;;;3.93;;
64667;SDS011;51077;42.716;23.344;2022-08-19T08:18:32;8.90;;;4.80;;
64667;SDS011;51077;42.716;23.344;2022-08-19T08:20:58;5.80;;;3.87;;
64667;SDS011;51077;42.716;23.344;2022-08-19T08:23:24;11.73;;;4.40;;
64667;SDS011;51077;42.716;23.344;2022-08-19T08:25:51;6.10;;;3.83;;
64667;SDS011;51077;42.716;23.344;2022-08-19T08:28:19;8.47;;;3.97;;
64667;SDS011;51077;42.716;23.344;2022-08-19T08:30:45;4.93;;;4.03;;
64667;SDS011;51077;42.716;23.344;2022-08-19T08:33:13;8.30;;;4.00;;
64667;SDS011;51077;42.716;23.344;2022-08-19T08:35:41;7.53;;;3.87;;
64667;SDS011;51077;42.716;23.344;2022-08-19T08:38:07;6.23;;;3.70;;
64667;SDS011;51077;42.716;23.344;2022-08-19T08:45:59;10.20;;;3.80;;
64667;SDS011;51077;42.716;23.344;2022-08-19T08:48:47;5.37;;;3.60;;
64667;SDS011;51077;42.716;23.344;2022-08-19T08:51:42;8.57;;;3.70;;
64667;SDS011;51077;42.716;23.344;2022-08-19T08:54:19;6.53;;;3.90;;
64667;SDS011;51077;42.716;23.344;2022-08-19T08:56:48;7.57;;;3.53;;
64667;SDS011;51077;42.716;23.344;2022-08-19T08:59:20;6.33;;;3.60;;
64667;SDS011;51077;42.716;23.344;2022-08-19T09:02:00;8.27;;;3.90;;
64667;SDS011;51077;42.716;23.344;2022-08-19T09:04:25;6.00;;;3.30;;
64667;SDS011;51077;42.716;23.344;2022-08-19T09:06:53;7.93;;;3.70;;
64667;SDS011;51077;42.716;23.344;2022-08-19T09:14:48;6.20;;;3.00;;
64667;SDS011;51077;42.716;23.344;2022-08-19T09:17:19;5.10;;;3.53;;
64667;SDS011;51077;42.716;23.344;2022-08-19T09:19:57;7.40;;;3.37;;
64667;SDS011;51077;42.716;23.344;2022-08-19T09:22:31;6.37;;;3.10;;
64667;SDS011;51077;42.716;23.344;2022-08-19T09:24:57;4.43;;;2.70;;
64667;SDS011;51077;42.716;23.344;2022-08-19T09:27:23;6.60;;;3.50;;
64667;SDS011;51077;42.716;23.344;2022-08-19T09:29:50;7.00;;;2.70;;
64667;SDS011;51077;42.716;23.344;2022-08-19T09:32:16;7.33;;;3.40;;
64667;SDS011;51077;42.716;23.344;2022-08-19T09:34:43;5.97;;;3.00;;
64667;SDS011;51077;42.716;23.344;2022-08-19T09:37:09;3.83;;;3.00;;
64667;SDS011;51077;42.716;23.344;2022-08-19T09:39:34;4.63;;;3.10;;
64667;SDS011;51077;42.716;23.344;2022-08-19T09:42:00;3.50;;;3.00;;
64667;SDS011;51077;42.716;23.344;2022-08-19T09:44:25;4.37;;;2.60;;
64667;SDS011;51077;42.716;23.344;2022-08-19T09:46:51;3.97;;;2.80;;
64667;SDS011;51077;42.716;23.344;2022-08-19T09:49:17;3.33;;;2.80;;
64667;SDS011;51077;42.716;23.344;2022-08-19T09:51:44;4.40;;;2.67;;
64667;SDS011;51077;42.716;23.344;2022-08-19T09:54:12;5.73;;;2.73;;
64667;SDS011;51077;42.716;23.344;2022-08-19T09:56:39;4.00;;;2.93;;
64667;SDS011;51077;42.716;23.344;2022-08-19T09:59:05;5.47;;;2.90;;
64667;SDS011;51077;42.716;23.344;2022-08-19T10:01:30;5.07;;;3.10;;
64667;SDS011;51077;42.716;23.344;2022-08-19T10:03:58;5.63;;;3.20;;
64667;SDS011;51077;42.716;23.344;2022-08-19T10:06:25;6.50;;;2.67;;
64667;SDS011;51077;42.716;23.344;2022-08-19T10:08:55;4.57;;;2.57;;
64667;SDS011;51077;42.716;23.344;2022-08-19T10:11:21;4.40;;;2.80;;
64667;SDS011;51077;42.716;23.344;2022-08-19T10:13:47;4.83;;;3.47;;
64667;SDS011;51077;42.716;23.344;2022-08-19T10:16:14;6.10;;;2.97;;
64667;SDS011;51077;42.716;23.344;2022-08-19T10:18:43;4.73;;;2.80;;
64667;SDS011;51077;42.716;23.344;2022-08-19T10:21:12;4.03;;;2.80;;
64667;SDS011;51077;42.716;23.344;2022-08-19T10:23:44;5.93;;;2.73;;
64667;SDS011;51077;42.716;23.344;2022-08-19T10:26:13;5.47;;;2.80;;
64667;SDS011;51077;42.716;23.344;2022-08-19T10:28:41;6.77;;;2.90;;
64667;SDS011;51077;42.716;23.344;2022-08-19T10:31:08;3.83;;;2.30;;
64667;SDS011;51077;42.716;23.344;2022-08-19T10:33:37;3.77;;;2.73;;
64667;SDS011;51077;42.716;23.344;2022-08-19T10:36:06;4.37;;;2.97;;
64667;SDS011;51077;42.716;23.344;2022-08-19T10:38:34;5.33;;;2.77;;
64667;SDS011;51077;42.716;23.344;2022-08-19T10:41:07;3.40;;;2.60;;
64667;SDS011;51077;42.716;23.344;2022-08-19T10:43:38;3.90;;;2.47;;
64667;SDS011;51077;42.716;23.344;2022-08-19T10:46:06;3.60;;;2.43;;
64667;SDS011;51077;42.716;23.344;2022-08-19T10:48:33;3.97;;;2.80;;
64667;SDS011;51077;42.716;23.344;2022-08-19T10:50:59;5.47;;;2.60;;
64667;SDS011;51077;42.716;23.344;2022-08-19T10:53:59;3.90;;;2.70;;
64667;SDS011;51077;42.716;23.344;2022-08-19T10:56:26;5.47;;;2.60;;
64667;SDS011;51077;42.716;23.344;2022-08-19T10:59:11;4.07;;;2.97;;
64667;SDS011;51077;42.716;23.344;2022-08-19T11:01:38;5.90;;;2.90;;
64667;SDS011;51077;42.716;23.344;2022-08-19T11:04:04;4.33;;;3.00;;
64667;SDS011;51077;42.716;23.344;2022-08-19T11:06:33;4.07;;;2.90;;
64667;SDS011;51077;42.716;23.344;2022-08-19T11:08:59;7.27;;;3.10;;
64667;SDS011;51077;42.716;23.344;2022-08-19T11:11:25;6.67;;;3.03;;
64667;SDS011;51077;42.716;23.344;2022-08-19T11:13:51;4.90;;;2.97;;
64667;SDS011;51077;42.716;23.344;2022-08-19T11:16:21;5.57;;;2.90;;
64667;SDS011;51077;42.716;23.344;2022-08-19T11:18:52;4.97;;;2.80;;
64667;SDS011;51077;42.716;23.344;2022-08-19T11:21:27;4.53;;;2.97;;
64667;SDS011;51077;42.716;23.344;2022-08-19T11:23:58;7.63;;;3.13;;
64667;SDS011;51077;42.716;23.344;2022-08-19T11:26:27;4.65;;;2.67;;
64667;SDS011;51077;42.716;23.344;2022-08-19T11:28:54;3.70;;;2.77;;
64667;SDS011;51077;42.716;23.344;2022-08-19T11:31:22;4.05;;;2.75;;
64667;SDS011;51077;42.716;23.344;2022-08-19T11:33:50;4.57;;;2.90;;
64667;SDS011;51077;42.716;23.344;2022-08-19T11:36:17;3.80;;;2.65;;
64667;SDS011;51077;42.716;23.344;2022-08-19T11:38:44;7.00;;;2.63;;
64667;SDS011;51077;42.716;23.344;2022-08-19T11:41:12;6.85;;;3.65;;
64667;SDS011;51077;42.716;23.344;2022-08-19T11:43:37;5.60;;;3.27;;
64667;SDS011;51077;42.716;23.344;2022-08-19T11:46:05;5.10;;;2.67;;
64667;SDS011;51077;42.716;23.344;2022-08-19T11:48:32;5.20;;;2.87;;
64667;SDS011;51077;42.716;23.344;2022-08-19T11:50:59;3.93;;;2.70;;
64667;SDS011;51077;42.716;23.344;2022-08-19T11:53:31;4.70;;;3.08;;
64667;SDS011;51077;42.716;23.344;2022-08-19T11:55:57;4.93;;;2.87;;
64667;SDS011;51077;42.716;23.344;2022-08-19T11:58:23;7.47;;;3.10;;
64667;SDS011;51077;42.716;23.344;2022-08-19T12:00:49;4.60;;;2.00;;
64667;SDS011;51077;42.716;23.344;2022-08-19T12:03:15;2.87;;;2.30;;
64667;SDS011;51077;42.716;23.344;2022-08-19T12:05:41;7.03;;;2.20;;
64667;SDS011;51077;42.716;23.344;2022-08-19T12:08:07;4.67;;;2.70;;
64667;SDS011;51077;42.716;23.344;2022-08-19T12:10:33;5.77;;;2.97;;
64667;SDS011;51077;42.716;23.344;2022-08-19T12:12:59;5.70;;;3.13;;
64667;SDS011;51077;42.716;23.344;2022-08-19T12:15:26;4.53;;;2.83;;
64667;SDS011;51077;42.716;23.344;2022-08-19T12:17:53;6.07;;;2.83;;
64667;SDS011;51077;42.716;23.344;2022-08-19T12:20:21;5.67;;;3.30;;
64667;SDS011;51077;42.716;23.344;2022-08-19T12:22:47;7.60;;;3.10;;
64667;SDS011;51077;42.716;23.344;2022-08-19T12:25:13;5.93;;;3.10;;
64667;SDS011;51077;42.716;23.344;2022-08-19T12:27:39;5.20;;;3.20;;
64667;SDS011;51077;42.716;23.344;2022-08-19T12:30:06;8.20;;;3.13;;
64667;SDS011;51077;42.716;23.344;2022-08-19T12:32:33;6.70;;;3.60;;
64667;SDS011;51077;42.716;23.344;2022-08-19T12:34:58;6.83;;;3.33;;
64667;SDS011;51077;42.716;23.344;2022-08-19T12:37:24;4.33;;;3.00;;
64667;SDS011;51077;42.716;23.344;2022-08-19T12:39:49;5.03;;;3.20;;
64667;SDS011;51077;42.716;23.344;2022-08-19T12:42:15;4.83;;;3.10;;
64667;SDS011;51077;42.716;23.344;2022-08-19T12:44:43;6.10;;;2.70;;
64667;SDS011;51077;42.716;23.344;2022-08-19T12:47:09;8.07;;;3.13;;
64667;SDS011;51077;42.716;23.344;2022-08-19T12:49:37;5.03;;;2.87;;
64667;SDS011;51077;42.716;23.344;2022-08-19T12:52:04;5.47;;;3.07;;
64667;SDS011;51077;42.716;23.344;2022-08-19T12:54:31;6.63;;;3.23;;
64667;SDS011;51077;42.716;23.344;2022-08-19T12:56:57;5.73;;;3.10;;
64667;SDS011;51077;42.716;23.344;2022-08-19T12:59:24;5.40;;;3.20;;
64667;SDS011;51077;42.716;23.344;2022-08-19T13:01:50;6.43;;;3.47;;
64667;SDS011;51077;42.716;23.344;2022-08-19T13:04:15;5.27;;;3.00;;
64667;SDS011;51077;42.716;23.344;2022-08-19T13:06:41;5.67;;;2.87;;
64667;SDS011;51077;42.716;23.344;2022-08-19T13:09:07;6.87;;;3.30;;
64667;SDS011;51077;42.716;23.344;2022-08-19T13:11:33;6.37;;;3.30;;
64667;SDS011;51077;42.716;23.344;2022-08-19T13:14:00;5.33;;;3.57;;
64667;SDS011;51077;42.716;23.344;2022-08-19T13:16:26;5.83;;;3.13;;
64667;SDS011;51077;42.716;23.344;2022-08-19T13:18:53;4.67;;;3.03;;
64667;SDS011;51077;42.716;23.344;2022-08-19T13:21:21;6.57;;;2.77;;
64667;SDS011;51077;42.716;23.344;2022-08-19T13:23:48;5.83;;;2.90;;
64667;SDS011;51077;42.716;23.344;2022-08-19T13:26:14;4.27;;;2.50;;
64667;SDS011;51077;42.716;23.344;2022-08-19T13:28:41;8.10;;;2.87;;
64667;SDS011;51077;42.716;23.344;2022-08-19T13:31:27;10.27;;;3.73;;
64667;SDS011;51077;42.716;23.344;2022-08-19T13:34:12;6.07;;;3.10;;
64667;SDS011;51077;42.716;23.344;2022-08-19T13:36:39;5.23;;;3.40;;
64667;SDS011;51077;42.716;23.344;2022-08-19T13:39:06;5.37;;;3.10;;
64667;SDS011;51077;42.716;23.344;2022-08-19T13:41:33;6.00;;;2.80;;
64667;SDS011;51077;42.716;23.344;2022-08-19T13:43:59;4.30;;;3.13;;
64667;SDS011;51077;42.716;23.344;2022-08-19T13:46:25;8.30;;;3.20;;
64667;SDS011;51077;42.716;23.344;2022-08-19T13:48:52;5.00;;;3.10;;
64667;SDS011;51077;42.716;23.344;2022-08-19T13:51:18;4.23;;;3.40;;
64667;SDS011;51077;42.716;23.344;2022-08-19T13:53:43;6.97;;;3.17;;
64667;SDS011;51077;42.716;23.344;2022-08-19T13:56:11;4.10;;;3.13;;
64667;SDS011;51077;42.716;23.344;2022-08-19T13:58:38;5.93;;;3.17;;
64667;SDS011;51077;42.716;23.344;2022-08-19T14:01:05;5.07;;;3.53;;
64667;SDS011;51077;42.716;23.344;2022-08-19T14:03:32;6.27;;;2.83;;
64667;SDS011;51077;42.716;23.344;2022-08-19T14:05:58;5.10;;;3.23;;
64667;SDS011;51077;42.716;23.344;2022-08-19T14:08:24;5.30;;;3.23;;
64667;SDS011;51077;42.716;23.344;2022-08-19T14:10:50;4.27;;;2.80;;
64667;SDS011;51077;42.716;23.344;2022-08-19T14:13:18;5.53;;;3.47;;
64667;SDS011;51077;42.716;23.344;2022-08-19T14:15:45;7.03;;;3.43;;
64667;SDS011;51077;42.716;23.344;2022-08-19T14:18:12;7.47;;;3.20;;
64667;SDS011;51077;42.716;23.344;2022-08-19T14:20:37;6.23;;;3.03;;
64667;SDS011;51077;42.716;23.344;2022-08-19T14:23:03;7.57;;;4.40;;
64667;SDS011;51077;42.716;23.344;2022-08-19T14:25:31;6.17;;;3.23;;
64667;SDS011;51077;42.716;23.344;2022-08-19T14:27:57;9.07;;;3.80;;
64667;SDS011;51077;42.716;23.344;2022-08-19T14:30:27;5.53;;;3.37;;
64667;SDS011;51077;42.716;23.344;2022-08-19T14:32:55;4.23;;;3.03;;
64667;SDS011;51077;42.716;23.344;2022-08-19T14:35:23;7.30;;;3.60;;
64667;SDS011;51077;42.716;23.344;2022-08-19T14:37:51;5.40;;;3.30;;
64667;SDS011;51077;42.716;23.344;2022-08-19T14:40:20;5.30;;;3.40;;
64667;SDS011;51077;42.716;23.344;2022-08-19T14:42:54;7.33;;;3.60;;
64667;SDS011;51077;42.716;23.344;2022-08-19T14:45:30;6.57;;;3.57;;
64667;SDS011;51077;42.716;23.344;2022-08-19T14:47:57;5.17;;;3.40;;
64667;SDS011;51077;42.716;23.344;2022-08-19T14:50:24;8.90;;;4.03;;
64667;SDS011;51077;42.716;23.344;2022-08-19T14:52:49;8.87;;;4.10;;